sensor_id;sensor_type;location;lat;lon;timestamp;pressure;altitude;pressure_sealevel;temperature;humidity
25350;BME280;13302;48.796;11.978;2022-09-09T00:02:01;96631.31;;;16.35;40.15
25350;BME280;13302;48.796;11.978;2022-09-09T00:05:19;96618.16;;;16.35;40.28
25350;BME280;13302;48.796;11.978;2022-09-09T00:08:18;96622.94;;;16.38;40.18
25350;BME280;13302;48.796;11.978;2022-09-09T00:11:09;96621.38;;;16.41;40.08
25350;BME280;13302;48.796;11.978;2022-09-09T00:14:01;96624.97;;;16.41;39.64
25350;BME280;13302;48.796;11.978;2022-09-09T00:16:55;96616.56;;;16.38;39.24
25350;BME280;13302;48.796;11.978;2022-09-09T00:20:02;96610.59;;;16.32;39.66
25350;BME280;13302;48.796;11.978;2022-09-09T00:23:25;96599.81;;;16.27;39.72
25350;BME280;13302;48.796;11.978;2022-09-09T00:29:45;96605.38;;;16.24;39.67
25350;BME280;13302;48.796;11.978;2022-09-09T00:32:34;96599.00;;;16.23;39.53
25350;BME280;13302;48.796;11.978;2022-09-09T00:35:26;96601.78;;;16.16;39.56
25350;BME280;13302;48.796;11.978;2022-09-09T00:38:24;96596.22;;;16.13;39.52
25350;BME280;13302;48.796;11.978;2022-09-09T00:56:37;96603.69;;;15.94;39.54
25350;BME280;13302;48.796;11.978;2022-09-09T00:59:47;96605.66;;;15.90;39.94
25350;BME280;13302;48.796;11.978;2022-09-09T01:03:15;96600.88;;;15.87;39.90
25350;BME280;13302;48.796;11.978;2022-09-09T01:09:19;96592.91;;;15.86;39.74
25350;BME280;13302;48.796;11.978;2022-09-09T01:12:14;96602.88;;;15.87;39.64
25350;BME280;13302;48.796;11.978;2022-09-09T01:15:18;96607.66;;;15.86;39.77
25350;BME280;13302;48.796;11.978;2022-09-09T01:18:15;96591.31;;;15.85;39.71
25350;BME280;13302;48.796;11.978;2022-09-09T01:24:34;96594.50;;;15.80;39.72
25350;BME280;13302;48.796;11.978;2022-09-09T01:27:34;96590.47;;;15.77;39.44
25350;BME280;13302;48.796;11.978;2022-09-09T01:30:23;96587.31;;;15.75;39.91
25350;BME280;13302;48.796;11.978;2022-09-09T01:33:14;96585.69;;;15.71;39.91
25350;BME280;13302;48.796;11.978;2022-09-09T01:36:09;96585.69;;;15.71;39.84
25350;BME280;13302;48.796;11.978;2022-09-09T01:39:05;96586.88;;;15.73;39.77
25350;BME280;13302;48.796;11.978;2022-09-09T01:41:53;96590.09;;;15.75;39.81
25350;BME280;13302;48.796;11.978;2022-09-09T01:44:42;96591.28;;;15.78;40.05
25350;BME280;13302;48.796;11.978;2022-09-09T01:47:29;96590.91;;;15.79;39.71
25350;BME280;13302;48.796;11.978;2022-09-09T01:50:52;96585.72;;;15.78;39.12
25350;BME280;13302;48.796;11.978;2022-09-09T01:53:40;96586.50;;;15.75;39.19
25350;BME280;13302;48.796;11.978;2022-09-09T01:59:42;96590.84;;;15.69;39.64
25350;BME280;13302;48.796;11.978;2022-09-09T02:02:49;96597.56;;;15.64;40.01
25350;BME280;13302;48.796;11.978;2022-09-09T02:08:52;96595.19;;;15.62;40.24
25350;BME280;13302;48.796;11.978;2022-09-09T02:11:40;96593.19;;;15.67;40.36
25350;BME280;13302;48.796;11.978;2022-09-09T02:14:42;96587.28;;;15.72;40.20
25350;BME280;13302;48.796;11.978;2022-09-09T02:17:36;96584.91;;;15.77;40.34
25350;BME280;13302;48.796;11.978;2022-09-09T02:20:31;96592.09;;;15.82;40.07
25350;BME280;13302;48.796;11.978;2022-09-09T02:23:21;96595.69;;;15.82;39.83
25350;BME280;13302;48.796;11.978;2022-09-09T02:26:12;96593.69;;;15.79;39.88
25350;BME280;13302;48.796;11.978;2022-09-09T02:29:19;96598.03;;;15.77;39.73
25350;BME280;13302;48.796;11.978;2022-09-09T02:32:15;96593.28;;;15.77;40.00
25350;BME280;13302;48.796;11.978;2022-09-09T02:35:07;96596.47;;;15.79;40.08
25350;BME280;13302;48.796;11.978;2022-09-09T02:38:02;96598.84;;;15.77;39.46
25350;BME280;13302;48.796;11.978;2022-09-09T02:40:51;96604.81;;;15.76;39.70
25350;BME280;13302;48.796;11.978;2022-09-09T02:43:39;96599.22;;;15.72;39.52
25350;BME280;13302;48.796;11.978;2022-09-09T02:46:47;96598.78;;;15.67;39.60
25350;BME280;13302;48.796;11.978;2022-09-09T02:50:13;96597.16;;;15.66;39.96
25350;BME280;13302;48.796;11.978;2022-09-09T02:53:18;96598.38;;;15.68;39.45
25350;BME280;13302;48.796;11.978;2022-09-09T02:56:20;96593.59;;;15.65;38.82
25350;BME280;13302;48.796;11.978;2022-09-09T02:59:08;96598.34;;;15.61;38.88
25350;BME280;13302;48.796;11.978;2022-09-09T03:01:57;96582.78;;;15.56;38.97
25350;BME280;13302;48.796;11.978;2022-09-09T03:04:44;96587.97;;;15.51;39.30
25350;BME280;13302;48.796;11.978;2022-09-09T03:07:37;96589.13;;;15.46;39.72
25350;BME280;13302;48.796;11.978;2022-09-09T03:10:26;96589.09;;;15.43;39.88
25350;BME280;13302;48.796;11.978;2022-09-09T03:13:13;96591.06;;;15.39;39.93
25350;BME280;13302;48.796;11.978;2022-09-09T03:16:03;96586.25;;;15.36;39.69
25350;BME280;13302;48.796;11.978;2022-09-09T03:18:54;96583.88;;;15.34;39.94
25350;BME280;13302;48.796;11.978;2022-09-09T03:21:41;96585.47;;;15.35;39.83
25350;BME280;13302;48.796;11.978;2022-09-09T03:24:28;96582.66;;;15.35;39.88
25350;BME280;13302;48.796;11.978;2022-09-09T03:27:15;96591.44;;;15.37;39.60
25350;BME280;13302;48.796;11.978;2022-09-09T03:30:04;96592.25;;;15.38;39.79
25350;BME280;13302;48.796;11.978;2022-09-09T03:32:52;96588.66;;;15.37;40.06
25350;BME280;13302;48.796;11.978;2022-09-09T03:35:39;96583.09;;;15.37;39.97
25350;BME280;13302;48.796;11.978;2022-09-09T03:38:33;96581.91;;;15.38;40.03
25350;BME280;13302;48.796;11.978;2022-09-09T03:41:21;96583.91;;;15.38;39.82
25350;BME280;13302;48.796;11.978;2022-09-09T03:44:10;96581.50;;;15.36;39.67
25350;BME280;13302;48.796;11.978;2022-09-09T03:47:00;96587.03;;;15.33;40.11
25350;BME280;13302;48.796;11.978;2022-09-09T03:49:47;96591.00;;;15.32;39.94
25350;BME280;13302;48.796;11.978;2022-09-09T03:52:36;96587.81;;;15.30;40.26
25350;BME280;13302;48.796;11.978;2022-09-09T03:55:25;96589.41;;;15.31;39.95
25350;BME280;13302;48.796;11.978;2022-09-09T03:58:14;96589.81;;;15.29;39.85
25350;BME280;13302;48.796;11.978;2022-09-09T04:01:07;96583.00;;;15.27;40.12
25350;BME280;13302;48.796;11.978;2022-09-09T04:04:02;96587.00;;;15.26;39.79
25350;BME280;13302;48.796;11.978;2022-09-09T04:06:49;96587.00;;;15.26;40.30
25350;BME280;13302;48.796;11.978;2022-09-09T04:09:37;96578.66;;;15.26;40.08
25350;BME280;13302;48.796;11.978;2022-09-09T04:12:24;96578.66;;;15.26;39.92
25350;BME280;13302;48.796;11.978;2022-09-09T04:15:11;96578.66;;;15.26;39.92
25350;BME280;13302;48.796;11.978;2022-09-09T04:17:58;96574.25;;;15.25;40.38
25350;BME280;13302;48.796;11.978;2022-09-09T04:20:50;96577.44;;;15.23;40.07
25350;BME280;13302;48.796;11.978;2022-09-09T04:23:39;96581.44;;;15.26;40.29
25350;BME280;13302;48.796;11.978;2022-09-09T04:26:27;96573.09;;;15.26;40.28
25350;BME280;13302;48.796;11.978;2022-09-09T04:29:13;96581.00;;;15.24;40.12
25350;BME280;13302;48.796;11.978;2022-09-09T04:32:01;96574.25;;;15.21;39.96
25350;BME280;13302;48.796;11.978;2022-09-09T04:34:48;96575.81;;;15.18;40.25
25350;BME280;13302;48.796;11.978;2022-09-09T04:37:35;96584.16;;;15.18;40.01
25350;BME280;13302;48.796;11.978;2022-09-09T04:40:23;96586.53;;;15.16;40.38
25350;BME280;13302;48.796;11.978;2022-09-09T04:43:11;96577.38;;;15.16;40.46
25350;BME280;13302;48.796;11.978;2022-09-09T04:46:01;96568.22;;;15.15;40.39
25350;BME280;13302;48.796;11.978;2022-09-09T04:48:49;96563.09;;;15.17;40.25
25350;BME280;13302;48.796;11.978;2022-09-09T04:51:37;96571.03;;;15.19;39.90
25350;BME280;13302;48.796;11.978;2022-09-09T04:54:25;96568.66;;;15.17;39.72
25350;BME280;13302;48.796;11.978;2022-09-09T04:57:12;96570.22;;;15.15;39.78
25350;BME280;13302;48.796;11.978;2022-09-09T05:00:05;96572.97;;;15.11;39.48
25350;BME280;13302;48.796;11.978;2022-09-09T05:02:56;96568.59;;;15.10;40.06
25350;BME280;13302;48.796;11.978;2022-09-09T05:05:44;96560.25;;;15.10;39.79
25350;BME280;13302;48.796;11.978;2022-09-09T05:08:31;96560.66;;;15.12;39.68
25350;BME280;13302;48.796;11.978;2022-09-09T05:11:21;96567.41;;;15.11;39.53
25350;BME280;13302;48.796;11.978;2022-09-09T05:14:10;96572.19;;;15.11;39.53
25350;BME280;13302;48.796;11.978;2022-09-09T05:16:59;96571.78;;;15.09;39.81
25350;BME280;13302;48.796;11.978;2022-09-09T05:19:46;96566.59;;;15.07;39.75
25350;BME280;13302;48.796;11.978;2022-09-09T05:22:33;96576.91;;;15.03;39.88
25350;BME280;13302;48.796;11.978;2022-09-09T05:25:23;96578.50;;;15.01;40.23
25350;BME280;13302;48.796;11.978;2022-09-09T05:28:14;96582.81;;;14.98;40.22
25350;BME280;13302;48.796;11.978;2022-09-09T05:31:06;96601.13;;;14.99;40.43
25350;BME280;13302;48.796;11.978;2022-09-09T05:33:55;96605.53;;;15.04;40.95
25350;BME280;13302;48.796;11.978;2022-09-09T05:36:42;96608.78;;;15.09;40.79
25350;BME280;13302;48.796;11.978;2022-09-09T05:39:29;96603.63;;;15.15;40.92
25350;BME280;13302;48.796;11.978;2022-09-09T05:42:16;96609.22;;;15.18;41.57
25350;BME280;13302;48.796;11.978;2022-09-09T05:45:04;96605.69;;;15.25;41.59
25350;BME280;13302;48.796;11.978;2022-09-09T05:47:52;96605.34;;;15.30;41.70
25350;BME280;13302;48.796;11.978;2022-09-09T05:50:42;96606.16;;;15.34;41.59
25350;BME280;13302;48.796;11.978;2022-09-09T05:53:31;96597.03;;;15.37;41.61
25350;BME280;13302;48.796;11.978;2022-09-09T05:56:23;96604.59;;;15.40;41.62
25350;BME280;13302;48.796;11.978;2022-09-09T05:59:12;96604.59;;;15.44;42.10
25350;BME280;13302;48.796;11.978;2022-09-09T06:01:59;96602.25;;;15.46;41.88
25350;BME280;13302;48.796;11.978;2022-09-09T06:04:52;96602.25;;;15.49;41.89
25350;BME280;13302;48.796;11.978;2022-09-09T06:07:44;96594.31;;;15.51;41.98
25350;BME280;13302;48.796;11.978;2022-09-09T06:10:32;96597.13;;;15.55;42.11
25350;BME280;13302;48.796;11.978;2022-09-09T06:13:19;96590.78;;;15.58;42.19
25350;BME280;13302;48.796;11.978;2022-09-09T06:16:12;96588.38;;;15.60;42.34
25350;BME280;13302;48.796;11.978;2022-09-09T06:19:02;96591.97;;;15.64;42.33
25350;BME280;13302;48.796;11.978;2022-09-09T06:21:51;96595.19;;;15.66;42.82
25350;BME280;13302;48.796;11.978;2022-09-09T06:24:38;96589.22;;;15.68;42.52
25350;BME280;13302;48.796;11.978;2022-09-09T06:27:27;96599.63;;;15.71;42.60
25350;BME280;13302;48.796;11.978;2022-09-09T06:30:15;96596.44;;;15.72;42.77
25350;BME280;13302;48.796;11.978;2022-09-09T06:33:03;96601.63;;;15.77;42.93
25350;BME280;13302;48.796;11.978;2022-09-09T06:35:52;96590.09;;;15.82;43.24
25350;BME280;13302;48.796;11.978;2022-09-09T06:38:41;96584.19;;;15.91;43.11
25350;BME280;13302;48.796;11.978;2022-09-09T06:41:31;96589.38;;;15.99;43.32
25350;BME280;13302;48.796;11.978;2022-09-09T06:44:21;96599.75;;;16.09;43.63
25350;BME280;13302;48.796;11.978;2022-09-09T06:47:09;96606.19;;;16.21;43.30
25350;BME280;13302;48.796;11.978;2022-09-09T06:49:59;96607.38;;;16.27;43.39
25350;BME280;13302;48.796;11.978;2022-09-09T06:52:46;96616.19;;;16.32;43.37
25350;BME280;13302;48.796;11.978;2022-09-09T06:55:34;96626.97;;;16.37;43.51
25350;BME280;13302;48.796;11.978;2022-09-09T06:58:21;96625.75;;;16.42;43.29
25350;BME280;13302;48.796;11.978;2022-09-09T07:01:10;96631.78;;;16.47;43.10
25350;BME280;13302;48.796;11.978;2022-09-09T07:03:59;96626.63;;;16.53;43.06
25350;BME280;13302;48.796;11.978;2022-09-09T07:06:47;96638.59;;;16.57;42.68
25350;BME280;13302;48.796;11.978;2022-09-09T07:09:38;96635.00;;;16.64;42.69
25350;BME280;13302;48.796;11.978;2022-09-09T07:12:26;96641.00;;;16.69;42.54
25350;BME280;13302;48.796;11.978;2022-09-09T07:15:18;96646.97;;;16.75;42.53
25350;BME280;13302;48.796;11.978;2022-09-09T07:18:06;96674.09;;;16.78;42.87
25350;BME280;13302;48.796;11.978;2022-09-09T07:20:53;96678.88;;;16.81;42.97
25350;BME280;13302;48.796;11.978;2022-09-09T07:23:42;96690.44;;;16.83;42.71
25350;BME280;13302;48.796;11.978;2022-09-09T07:26:30;96690.47;;;16.86;42.79
25350;BME280;13302;48.796;11.978;2022-09-09T07:29:20;96695.25;;;16.89;42.60
25350;BME280;13302;48.796;11.978;2022-09-09T07:32:09;96686.06;;;16.92;42.93
25350;BME280;13302;48.796;11.978;2022-09-09T07:34:57;96690.88;;;16.95;42.78
25350;BME280;13302;48.796;11.978;2022-09-09T07:37:46;96694.88;;;16.98;43.00
25350;BME280;13302;48.796;11.978;2022-09-09T07:40:37;96700.03;;;16.99;42.64
25350;BME280;13302;48.796;11.978;2022-09-09T07:43:26;96695.69;;;17.02;42.82
25350;BME280;13302;48.796;11.978;2022-09-09T07:46:15;96712.81;;;17.04;42.47
25350;BME280;13302;48.796;11.978;2022-09-09T07:49:03;96706.03;;;17.05;42.61
25350;BME280;13302;48.796;11.978;2022-09-09T07:51:53;96702.44;;;17.05;42.38
25350;BME280;13302;48.796;11.978;2022-09-09T07:54:41;96699.25;;;17.06;42.38
25350;BME280;13302;48.796;11.978;2022-09-09T07:57:30;96701.25;;;17.06;42.67
25350;BME280;13302;48.796;11.978;2022-09-09T08:00:17;96700.06;;;17.07;42.37
25350;BME280;13302;48.796;11.978;2022-09-09T08:03:10;96712.03;;;17.07;42.57
25350;BME280;13302;48.796;11.978;2022-09-09T08:06:03;96706.84;;;17.06;42.70
25350;BME280;13302;48.796;11.978;2022-09-09T08:08:51;96713.63;;;17.05;42.56
25350;BME280;13302;48.796;11.978;2022-09-09T08:11:39;96716.03;;;17.03;42.69
25350;BME280;13302;48.796;11.978;2022-09-09T08:14:28;96722.81;;;17.02;42.84
25350;BME280;13302;48.796;11.978;2022-09-09T08:17:17;96719.19;;;17.01;43.12
25350;BME280;13302;48.796;11.978;2022-09-09T08:20:04;96710.44;;;16.99;43.25
25350;BME280;13302;48.796;11.978;2022-09-09T08:22:52;96689.66;;;16.96;43.42
25350;BME280;13302;48.796;11.978;2022-09-09T08:25:39;96683.69;;;16.94;43.49
25350;BME280;13302;48.796;11.978;2022-09-09T08:28:26;96685.28;;;16.95;43.57
25350;BME280;13302;48.796;11.978;2022-09-09T08:31:16;96690.09;;;16.95;43.57
25350;BME280;13302;48.796;11.978;2022-09-09T08:34:05;96692.47;;;16.96;43.74
25350;BME280;13302;48.796;11.978;2022-09-09T08:36:54;96706.03;;;16.98;43.84
25350;BME280;13302;48.796;11.978;2022-09-09T08:39:47;96715.22;;;16.98;43.87
25350;BME280;13302;48.796;11.978;2022-09-09T08:42:45;96713.22;;;16.99;43.65
25350;BME280;13302;48.796;11.978;2022-09-09T08:46:01;96717.59;;;17.00;43.71
25350;BME280;13302;48.796;11.978;2022-09-09T08:49:11;96707.22;;;17.00;43.85
25350;BME280;13302;48.796;11.978;2022-09-09T08:52:08;96694.06;;;17.01;43.93
25350;BME280;13302;48.796;11.978;2022-09-09T08:58:28;96674.91;;;16.99;44.36
25350;BME280;13302;48.796;11.978;2022-09-09T09:08:41;96667.31;;;17.04;44.45
25350;BME280;13302;48.796;11.978;2022-09-09T09:11:19;96652.59;;;17.07;44.40
25350;BME280;13302;48.796;11.978;2022-09-09T09:14:17;96672.53;;;17.09;44.62
25350;BME280;13302;48.796;11.978;2022-09-09T09:17:16;96690.09;;;17.13;44.50
25350;BME280;13302;48.796;11.978;2022-09-09T09:20:10;96692.53;;;17.18;44.35
25350;BME280;13302;48.796;11.978;2022-09-09T09:23:02;96706.09;;;17.23;44.67
25350;BME280;13302;48.796;11.978;2022-09-09T09:25:56;96690.13;;;17.27;44.72
25350;BME280;13302;48.796;11.978;2022-09-09T09:28:46;96693.72;;;17.34;44.65
25350;BME280;13302;48.796;11.978;2022-09-09T09:31:36;96691.31;;;17.40;44.62
25350;BME280;13302;48.796;11.978;2022-09-09T09:34:23;96695.69;;;17.44;44.26
25350;BME280;13302;48.796;11.978;2022-09-09T09:37:16;96700.09;;;17.49;44.42
25350;BME280;13302;48.796;11.978;2022-09-09T09:40:15;96704.47;;;17.54;44.21
25350;BME280;13302;48.796;11.978;2022-09-09T09:43:03;96704.06;;;17.59;44.79
25350;BME280;13302;48.796;11.978;2022-09-09T09:45:56;96697.28;;;17.63;44.59
25350;BME280;13302;48.796;11.978;2022-09-09T09:49:04;96683.69;;;17.65;44.74
25350;BME280;13302;48.796;11.978;2022-09-09T09:51:53;96680.13;;;17.68;44.45
25350;BME280;13302;48.796;11.978;2022-09-09T09:54:46;96672.91;;;17.71;44.53
25350;BME280;13302;48.796;11.978;2022-09-09T09:57:34;96673.31;;;17.73;44.64
25350;BME280;13302;48.796;11.978;2022-09-09T10:00:25;96671.69;;;17.75;44.99
25350;BME280;13302;48.796;11.978;2022-09-09T10:03:28;96667.72;;;17.76;44.81
25350;BME280;13302;48.796;11.978;2022-09-09T10:06:16;96675.66;;;17.81;44.51
25350;BME280;13302;48.796;11.978;2022-09-09T10:12:24;96680.09;;;17.93;44.99
25350;BME280;13302;48.796;11.978;2022-09-09T10:15:35;96672.84;;;17.99;44.99
25350;BME280;13302;48.796;11.978;2022-09-09T10:18:48;96667.66;;;18.05;44.63
25350;BME280;13302;48.796;11.978;2022-09-09T10:28:33;96673.97;;;18.23;44.45
25350;BME280;13302;48.796;11.978;2022-09-09T10:31:41;96674.34;;;18.28;44.13
25350;BME280;13302;48.796;11.978;2022-09-09T10:40:33;96673.06;;;18.44;44.17
25350;BME280;13302;48.796;11.978;2022-09-09T10:43:46;96678.66;;;18.51;44.32
25350;BME280;13302;48.796;11.978;2022-09-09T10:56:12;96670.91;;;18.79;44.08
25350;BME280;13302;48.796;11.978;2022-09-09T10:59:14;96674.50;;;18.84;44.01
25350;BME280;13302;48.796;11.978;2022-09-09T11:02:14;96672.84;;;18.90;43.91
25350;BME280;13302;48.796;11.978;2022-09-09T11:05:14;96679.59;;;18.96;43.58
25350;BME280;13302;48.796;11.978;2022-09-09T11:08:05;96675.56;;;19.00;43.71
25350;BME280;13302;48.796;11.978;2022-09-09T11:13:53;96671.88;;;19.10;43.63
25350;BME280;13302;48.796;11.978;2022-09-09T11:16:50;96677.47;;;19.14;43.27
25350;BME280;13302;48.796;11.978;2022-09-09T11:19:40;96675.06;;;19.19;43.30
25350;BME280;13302;48.796;11.978;2022-09-09T11:22:44;96678.63;;;19.23;43.42
25350;BME280;13302;48.796;11.978;2022-09-09T11:25:51;96685.78;;;19.28;43.10
25350;BME280;13302;48.796;11.978;2022-09-09T11:29:02;96683.38;;;19.30;43.05
25350;BME280;13302;48.796;11.978;2022-09-09T11:32:03;96686.97;;;19.31;42.94
25350;BME280;13302;48.796;11.978;2022-09-09T11:41:04;96682.97;;;19.32;43.23
25350;BME280;13302;48.796;11.978;2022-09-09T11:43:53;96681.75;;;19.33;43.17
25350;BME280;13302;48.796;11.978;2022-09-09T11:46:41;96681.31;;;19.34;43.28
25350;BME280;13302;48.796;11.978;2022-09-09T11:49:40;96676.16;;;19.33;43.28
25350;BME280;13302;48.796;11.978;2022-09-09T11:52:40;96674.91;;;19.34;43.23
25350;BME280;13302;48.796;11.978;2022-09-09T11:55:31;96680.16;;;19.32;42.89
25350;BME280;13302;48.796;11.978;2022-09-09T11:58:23;96677.31;;;19.35;42.63
25350;BME280;13302;48.796;11.978;2022-09-09T12:07:25;96678.97;;;19.33;42.58
25350;BME280;13302;48.796;11.978;2022-09-09T12:10:29;96676.16;;;19.33;42.14
25350;BME280;13302;48.796;11.978;2022-09-09T12:13:20;96672.13;;;19.34;42.38
25350;BME280;13302;48.796;11.978;2022-09-09T12:16:28;96666.53;;;19.30;42.64
25350;BME280;13302;48.796;11.978;2022-09-09T12:19:20;96674.50;;;19.35;42.34
25350;BME280;13302;48.796;11.978;2022-09-09T12:23:17;96669.72;;;19.36;42.49
25350;BME280;13302;48.796;11.978;2022-09-09T12:31:44;96664.84;;;19.43;42.09
25350;BME280;13302;48.796;11.978;2022-09-09T12:34:47;96664.06;;;19.39;42.28
25350;BME280;13302;48.796;11.978;2022-09-09T12:40:29;96653.22;;;19.45;42.00
25350;BME280;13302;48.796;11.978;2022-09-09T12:43:20;96653.59;;;19.47;42.00
25350;BME280;13302;48.796;11.978;2022-09-09T12:46:10;96657.19;;;19.47;41.87
25350;BME280;13302;48.796;11.978;2022-09-09T12:49:03;96657.16;;;19.51;41.83
25350;BME280;13302;48.796;11.978;2022-09-09T12:51:50;96647.94;;;19.50;41.25
25350;BME280;13302;48.796;11.978;2022-09-09T12:54:44;96649.16;;;19.49;41.41
25350;BME280;13302;48.796;11.978;2022-09-09T12:57:35;96637.53;;;19.51;41.36
25350;BME280;13302;48.796;11.978;2022-09-09T13:00:24;96643.53;;;19.53;40.74
25350;BME280;13302;48.796;11.978;2022-09-09T13:03:20;96630.72;;;19.52;41.06
25350;BME280;13302;48.796;11.978;2022-09-09T13:06:12;96625.50;;;19.54;41.07
25350;BME280;13302;48.796;11.978;2022-09-09T13:09:01;96624.25;;;19.55;41.08
25350;BME280;13302;48.796;11.978;2022-09-09T13:11:52;96619.88;;;19.54;40.84
25350;BME280;13302;48.796;11.978;2022-09-09T13:14:45;96618.63;;;19.58;40.96
25350;BME280;13302;48.796;11.978;2022-09-09T13:17:34;96615.03;;;19.58;40.79
25350;BME280;13302;48.796;11.978;2022-09-09T13:20:22;96612.22;;;19.58;40.86
25350;BME280;13302;48.796;11.978;2022-09-09T13:23:11;96607.78;;;19.60;40.79
25350;BME280;13302;48.796;11.978;2022-09-09T13:26:01;96610.56;;;19.64;41.04
25350;BME280;13302;48.796;11.978;2022-09-09T13:28:48;96601.28;;;19.67;40.82
25350;BME280;13302;48.796;11.978;2022-09-09T13:31:36;96587.28;;;19.67;40.64
25350;BME280;13302;48.796;11.978;2022-09-09T13:34:30;96592.88;;;19.67;40.76
25350;BME280;13302;48.796;11.978;2022-09-09T13:40:18;96586.47;;;19.70;40.44
25350;BME280;13302;48.796;11.978;2022-09-09T13:43:18;96580.41;;;19.71;40.19
25350;BME280;13302;48.796;11.978;2022-09-09T13:46:39;96585.63;;;19.73;40.48
25350;BME280;13302;48.796;11.978;2022-09-09T13:49:30;96577.56;;;19.75;40.64
25350;BME280;13302;48.796;11.978;2022-09-09T13:52:18;96580.31;;;19.79;40.72
25350;BME280;13302;48.796;11.978;2022-09-09T13:55:05;96575.16;;;19.77;40.42
25350;BME280;13302;48.796;11.978;2022-09-09T13:58:03;96566.31;;;19.79;40.37
25350;BME280;13302;48.796;11.978;2022-09-09T14:00:52;96567.06;;;19.83;40.30
25350;BME280;13302;48.796;11.978;2022-09-09T14:03:40;96570.66;;;19.83;40.68
25350;BME280;13302;48.796;11.978;2022-09-09T14:06:27;96565.06;;;19.87;40.62
25350;BME280;13302;48.796;11.978;2022-09-09T14:09:17;96552.19;;;19.89;40.42
25350;BME280;13302;48.796;11.978;2022-09-09T14:12:04;96555.75;;;19.93;40.46
25350;BME280;13302;48.796;11.978;2022-09-09T14:14:51;96565.75;;;19.94;40.56
25350;BME280;13302;48.796;11.978;2022-09-09T14:17:38;96557.69;;;19.96;39.98
25350;BME280;13302;48.796;11.978;2022-09-09T14:20:25;96558.09;;;19.98;40.07
25350;BME280;13302;48.796;11.978;2022-09-09T14:23:12;96567.31;;;19.99;39.87
25350;BME280;13302;48.796;11.978;2022-09-09T14:25:59;96562.91;;;19.98;39.70
25350;BME280;13302;48.796;11.978;2022-09-09T14:28:47;96563.69;;;19.98;39.59
25350;BME280;13302;48.796;11.978;2022-09-09T14:31:41;96560.91;;;19.98;39.51
25350;BME280;13302;48.796;11.978;2022-09-09T14:34:28;96556.50;;;19.97;39.68
25350;BME280;13302;48.796;11.978;2022-09-09T14:37:16;96552.88;;;19.97;39.47
25350;BME280;13302;48.796;11.978;2022-09-09T14:40:03;96558.56;;;19.93;39.83
25350;BME280;13302;48.796;11.978;2022-09-09T14:42:52;96567.00;;;19.90;39.67
25350;BME280;13302;48.796;11.978;2022-09-09T14:45:39;96574.22;;;19.91;39.58
25350;BME280;13302;48.796;11.978;2022-09-09T14:48:26;96573.84;;;19.89;39.49
25350;BME280;13302;48.796;11.978;2022-09-09T14:51:19;96582.28;;;19.85;39.28
25350;BME280;13302;48.796;11.978;2022-09-09T14:54:06;96585.47;;;19.84;39.44
25350;BME280;13302;48.796;11.978;2022-09-09T14:56:53;96588.28;;;19.84;39.52
25350;BME280;13302;48.796;11.978;2022-09-09T14:59:40;96577.19;;;19.73;39.28
25350;BME280;13302;48.796;11.978;2022-09-09T15:02:27;96576.00;;;19.74;39.50
25350;BME280;13302;48.796;11.978;2022-09-09T15:05:16;96580.81;;;19.73;39.48
25350;BME280;13302;48.796;11.978;2022-09-09T15:08:03;96581.66;;;19.67;39.32
25350;BME280;13302;48.796;11.978;2022-09-09T15:10:50;96587.22;;;19.70;39.29
25350;BME280;13302;48.796;11.978;2022-09-09T15:13:39;96586.88;;;19.68;39.32
25350;BME280;13302;48.796;11.978;2022-09-09T15:16:27;96584.88;;;19.69;39.22
25350;BME280;13302;48.796;11.978;2022-09-09T15:19:15;96578.88;;;19.67;39.22
25350;BME280;13302;48.796;11.978;2022-09-09T15:22:02;96580.88;;;19.66;39.03
25350;BME280;13302;48.796;11.978;2022-09-09T15:24:50;96570.88;;;19.65;39.29
25350;BME280;13302;48.796;11.978;2022-09-09T15:27:37;96569.69;;;19.63;39.11
25350;BME280;13302;48.796;11.978;2022-09-09T15:30:25;96570.13;;;19.61;39.46
25350;BME280;13302;48.796;11.978;2022-09-09T15:33:13;96557.31;;;19.60;39.09
25350;BME280;13302;48.796;11.978;2022-09-09T15:36:00;96560.53;;;19.59;39.14
25350;BME280;13302;48.796;11.978;2022-09-09T15:38:48;96556.56;;;19.56;38.99
25350;BME280;13302;48.796;11.978;2022-09-09T15:41:35;96557.41;;;19.53;38.87
25350;BME280;13302;48.796;11.978;2022-09-09T15:44:22;96553.81;;;19.53;39.15
25350;BME280;13302;48.796;11.978;2022-09-09T15:47:12;96543.00;;;19.51;38.83
25350;BME280;13302;48.796;11.978;2022-09-09T15:49:59;96543.84;;;19.48;39.08
25350;BME280;13302;48.796;11.978;2022-09-09T15:52:47;96551.03;;;19.49;39.19
25350;BME280;13302;48.796;11.978;2022-09-09T15:55:34;96547.84;;;19.47;39.07
25350;BME280;13302;48.796;11.978;2022-09-09T15:58:21;96547.94;;;19.40;39.09
25350;BME280;13302;48.796;11.978;2022-09-09T16:01:09;96550.72;;;19.40;39.10
25350;BME280;13302;48.796;11.978;2022-09-09T16:03:58;96547.94;;;19.40;39.35
25350;BME280;13302;48.796;11.978;2022-09-09T16:06:46;96553.16;;;19.38;39.27
25350;BME280;13302;48.796;11.978;2022-09-09T16:09:33;96555.59;;;19.36;39.58
25350;BME280;13302;48.796;11.978;2022-09-09T16:12:21;96567.19;;;19.35;39.59
25350;BME280;13302;48.796;11.978;2022-09-09T16:15:08;96562.44;;;19.32;39.68
25350;BME280;13302;48.796;11.978;2022-09-09T16:17:55;96560.44;;;19.32;39.96
25350;BME280;13302;48.796;11.978;2022-09-09T16:20:42;96558.44;;;19.33;39.80
25350;BME280;13302;48.796;11.978;2022-09-09T16:23:29;96534.00;;;19.33;40.02
25350;BME280;13302;48.796;11.978;2022-09-09T16:26:17;96536.00;;;19.33;39.92
25350;BME280;13302;48.796;11.978;2022-09-09T16:29:05;96545.97;;;19.34;40.00
25350;BME280;13302;48.796;11.978;2022-09-09T16:31:53;96545.22;;;19.33;40.00
25350;BME280;13302;48.796;11.978;2022-09-09T16:34:40;96546.78;;;19.34;40.01